Time;durP1;ratioP1;P1;durP2;ratioP2;P2;SDS_P1;SDS_P2;PMS_P1;PMS_P2;Temp;Humidity;BMP_temperature;BMP_pressure;BME280_temperature;BME280_humidity;BME280_pressure;Samples;Min_cycle;Max_cycle;Signal;HPM_P1;HPM_P2
2023/05/19 00:01:55;;;;;;;9.30;2.90;;;;;;;10.12;59.24;96057.06;6234600;22;20637;-83
2023/05/19 00:04:21;;;;;;;7.70;2.73;;;;;;;10.26;59.09;96063.69;6234500;22;20152;-84
2023/05/19 00:07:01;;;;;;;5.67;2.40;;;;;;;10.23;59.07;96063.13;6232500;22;20163;-85
2023/05/19 00:09:35;;;;;;;9.07;3.03;;;;;;;10.12;59.93;96056.25;6233776;22;20153;-84
2023/05/19 00:12:04;;;;;;;8.57;2.90;;;;;;;10.06;59.93;96057.56;6233521;22;20196;-85
2023/05/19 00:14:35;;;;;;;9.77;2.40;;;;;;;9.97;60.02;96054.94;6282586;22;20152;-86
2023/05/19 00:17:01;;;;;;;7.17;2.87;;;;;;;10.16;59.47;96052.44;6255716;22;20202;-83
2023/05/19 00:19:32;;;;;;;7.03;2.93;;;;;;;10.08;59.78;96050.50;6283188;22;20598;-84
2023/05/19 00:21:57;;;;;;;5.43;2.43;;;;;;;10.14;59.83;96046.53;6282315;22;20175;-84
2023/05/19 00:24:25;;;;;;;7.57;2.83;;;;;;;10.30;59.72;96057.28;6256939;22;20168;-85
2023/05/19 00:26:59;;;;;;;7.70;2.80;;;;;;;10.17;60.29;96054.91;6281285;22;20157;-85
2023/05/19 00:29:28;;;;;;;6.50;2.77;;;;;;;9.97;60.78;96048.00;6256912;22;20152;-84
2023/05/19 00:32:11;;;;;;;6.13;2.53;;;;;;;10.04;60.66;96049.13;6280929;22;20176;-83
2023/05/19 00:34:47;;;;;;;4.63;2.33;;;;;;;10.07;60.62;96054.06;6283125;22;20191;-84
2023/05/19 00:37:22;;;;;;;10.63;3.00;;;;;;;10.06;60.52;96052.38;6258236;22;20152;-84
2023/05/19 00:39:50;;;;;;;8.13;2.50;;;;;;;10.10;60.22;96051.19;6285238;22;20156;-84
2023/05/19 00:42:15;;;;;;;5.67;3.10;;;;;;;10.05;61.06;96055.94;6281760;22;20262;-85
2023/05/19 00:44:59;;;;;;;3.63;2.60;;;;;;;10.07;60.63;96045.41;6257659;22;20181;-84
2023/05/19 00:47:30;;;;;;;5.17;2.37;;;;;;;10.01;61.19;96040.78;6281772;22;20186;-87
2023/05/19 00:50:16;;;;;;;9.50;2.80;;;;;;;9.92;61.45;96045.81;6260517;22;20167;-85
2023/05/19 00:53:04;;;;;;;6.27;2.63;;;;;;;9.94;61.64;96038.72;6284979;22;20237;-85
2023/05/19 00:56:08;;;;;;;;;;;;;;;;;;;;;
2023/05/19 00:58:57;;;;;;;4.97;2.33;;;;;;;9.90;61.51;96032.16;6285013;22;20176;-87
2023/05/19 01:02:06;;;;;;;;;;;;;;;;;;;;;
2023/05/19 01:04:52;;;;;;;7.40;2.63;;;;;;;9.86;61.54;96032.53;6286227;22;20506;-85
2023/05/19 01:07:38;;;;;;;;;;;;;;;;;;;;;
2023/05/19 01:10:33;;;;;;;6.17;2.23;;;;;;;9.81;62.03;96030.34;6283955;22;20188;-82
2023/05/19 01:13:10;;;;;;;4.67;2.23;;;;;;;9.70;61.87;96033.00;6283027;22;20172;-85
2023/05/19 01:16:17;;;;;;;5.63;3.00;;;;;;;9.74;61.83;96037.00;6255471;22;20172;-85
2023/05/19 01:19:04;;;;;;;6.20;2.43;;;;;;;9.74;62.03;96037.00;6134795;23;20219;-84
2023/05/19 01:22:27;;;;;;;7.60;2.80;;;;;;;9.73;62.10;96039.72;6156929;23;20712;-83
2023/05/19 01:25:29;;;;;;;4.50;2.50;;;;;;;9.81;61.73;96038.13;6083642;23;20208;-84
2023/05/19 01:28:22;;;;;;;10.07;3.00;;;;;;;9.85;61.33;96044.69;6097397;23;20665;-84
2023/05/19 01:31:11;;;;;;;8.30;2.50;;;;;;;9.79;62.22;96039.19;6098914;23;20259;-83
2023/05/19 01:34:08;;;;;;;5.00;2.37;;;;;;;9.81;62.02;96032.13;6042771;23;20175;-84
2023/05/19 01:36:55;;;;;;;5.90;2.63;;;;;;;9.71;62.31;96034.66;6076300;23;20203;-84
2023/05/19 01:39:44;;;;;;;;;;;;;;;;;;;;;
2023/05/19 01:42:21;;;;;;;5.40;2.40;;;;;;;9.79;62.16;96034.00;6100396;23;20201;-84
2023/05/19 01:45:04;;;;;;;8.47;2.80;;;;;;;9.74;62.04;96024.03;6076140;23;20156;-83
2023/05/19 01:47:34;;;;;;;5.97;2.63;;;;;;;9.61;62.65;96024.25;6096719;23;20163;-85
2023/05/19 01:50:04;;;;;;;6.80;2.70;;;;;;;9.71;62.19;96029.47;6099749;23;20499;-85
2023/05/19 01:52:32;;;;;;;6.73;3.50;;;;;;;9.71;62.56;96019.09;6125049;23;20165;-85
2023/05/19 01:55:23;;;;;;;10.13;2.47;;;;;;;9.63;63.07;96032.72;6163977;22;20259;-85
2023/05/19 01:58:26;;;;;;;5.40;2.97;;;;;;;9.61;63.50;96024.25;6257510;22;20160;-84
2023/05/19 02:01:34;;;;;;;9.03;2.80;;;;;;;9.63;63.44;96029.31;6194050;23;20182;-85
2023/05/19 02:04:34;;;;;;;;;;;;;;;;;;;;;
2023/05/19 02:07:14;;;;;;;9.57;2.87;;;;;;;9.54;63.80;96030.91;6197232;23;20188;-84
2023/05/19 02:10:02;;;;;;;7.53;2.43;;;;;;;9.50;63.92;96026.09;6193855;23;20232;-85
2023/05/19 02:12:50;;;;;;;8.13;2.87;;;;;;;9.46;63.74;96014.38;6168895;23;20162;-84
2023/05/19 02:15:24;;;;;;;5.33;2.80;;;;;;;9.43;64.18;96027.56;6193009;23;20181;-84
2023/05/19 02:17:55;;;;;;;4.83;2.70;;;;;;;9.43;63.98;96023.19;6193092;23;20225;-84
2023/05/19 02:20:23;;;;;;;6.87;2.43;;;;;;;9.38;64.74;96029.75;6193722;23;20185;-86
2023/05/19 02:22:54;;;;;;;6.50;2.63;;;;;;;9.44;64.30;96031.78;6192064;23;20190;-85
2023/05/19 02:25:40;;;;;;;8.80;2.90;;;;;;;9.34;63.96;96035.16;6193143;23;20154;-85
2023/05/19 02:28:05;;;;;;;5.33;2.43;;;;;;;9.28;64.82;96033.09;6225549;22;20555;-85
2023/05/19 02:30:44;;;;;;;6.87;3.00;;;;;;;9.21;65.16;96037.13;6281598;22;20172;-86
2023/05/19 02:36:20;;;;;;;5.90;3.00;;;;;;;9.15;65.56;96035.06;6280805;22;20704;-84
2023/05/19 02:39:01;;;;;;;9.80;3.13;;;;;;;9.20;65.53;96030.31;6280240;22;20693;-85
2023/05/19 02:42:05;;;;;;;;;;;;;;;;;;;;;
2023/05/19 02:44:28;;;;;;;7.47;2.70;;;;;;;9.08;66.24;96024.38;6278973;22;20167;-84
2023/05/19 02:50:25;;;;;;;5.37;2.97;;;;;;;9.06;66.27;96015.91;6187789;23;20217;-84
2023/05/19 02:52:59;;;;;;;6.13;2.87;;;;;;;8.95;66.60;96017.75;6140260;23;20178;-84
2023/05/19 02:55:32;;;;;;;8.60;2.90;;;;;;;9.00;66.71;96010.41;6164124;23;20254;-84
2023/05/19 02:58:06;;;;;;;8.63;2.87;;;;;;;8.98;66.67;96018.31;6134412;23;20514;-84
2023/05/19 03:00:44;;;;;;;4.47;2.87;;;;;;;8.99;66.53;96014.75;6160729;23;20182;-84
2023/05/19 03:03:42;;;;;;;6.43;2.93;;;;;;;8.98;66.94;96017.47;6162668;23;20166;-85
2023/05/19 03:06:33;;;;;;;4.30;2.90;;;;;;;8.95;67.02;96023.75;6163492;23;20225;-86
2023/05/19 03:13:04;;;;;;;4.13;2.63;;;;;;;9.02;67.11;96013.72;6066739;23;20188;-84
2023/05/19 03:15:46;;;;;;;5.00;3.27;;;;;;;8.92;67.07;96017.97;6046540;23;20305;-84
2023/05/19 03:18:16;;;;;;;3.93;2.63;;;;;;;9.05;66.97;96011.69;6042273;23;20165;-83
2023/05/19 03:20:50;;;;;;;7.73;3.00;;;;;;;8.99;67.34;96011.34;6043145;23;20683;-84
2023/05/19 03:23:29;;;;;;;5.73;2.80;;;;;;;9.08;67.10;96008.00;6043674;23;20628;-84
2023/05/19 03:26:06;;;;;;;8.20;2.87;;;;;;;9.03;67.11;96004.97;6046137;23;20173;-84
2023/05/19 03:28:45;;;;;;;5.53;3.37;;;;;;;9.00;67.49;96005.22;6101291;23;20160;-83
2023/05/19 03:31:44;;;;;;;;;;;;;;;;;;;;;
2023/05/19 03:34:26;;;;;;;9.00;2.83;;;;;;;9.03;67.35;96005.81;6125422;23;20235;-86
2023/05/19 03:37:03;;;;;;;6.57;3.00;;;;;;;8.99;67.37;96004.41;6100513;23;20174;-84
2023/05/19 03:40:03;;;;;;;7.60;3.00;;;;;;;9.06;67.63;96009.91;6102027;23;20504;-84
2023/05/19 03:43:22;;;;;;;;;;;;;;;;;;;;;
2023/05/19 03:46:24;;;;;;;;;;;;;;;;;;;;;
2023/05/19 03:49:14;;;;;;;8.87;3.07;;;;;;;9.10;67.51;96019.09;6071883;23;20252;-84
2023/05/19 03:51:58;;;;;;;4.60;2.83;;;;;;;9.19;66.93;96026.09;6098934;23;20180;-85
2023/05/19 03:54:35;;;;;;;10.67;3.40;;;;;;;9.20;66.99;96017.38;6070915;23;20167;-84
2023/05/19 03:57:01;;;;;;;8.67;3.63;;;;;;;9.25;66.88;96022.97;6051895;23;20694;-84
2023/05/19 03:59:40;;;;;;;5.50;2.70;;;;;;;9.17;67.81;96021.97;6056365;23;20160;-85
2023/05/19 04:02:41;;;;;;;9.93;3.30;;;;;;;9.31;66.38;96029.41;6057867;23;20401;-83
2023/05/19 04:05:46;;;;;;;7.00;3.23;;;;;;;9.40;66.80;96022.66;6080062;23;20604;-84
2023/05/19 04:08:45;;;;;;;6.10;2.80;;;;;;;9.39;66.71;96021.00;6054662;23;20227;-85
2023/05/19 04:11:38;;;;;;;7.30;3.10;;;;;;;9.40;66.15;96023.47;6097144;23;20204;-84
2023/05/19 04:14:29;;;;;;;5.33;2.70;;;;;;;9.44;66.52;96024.03;6060501;23;20582;-83
2023/05/19 04:17:28;;;;;;;5.17;2.90;;;;;;;9.44;66.59;96021.44;6187763;23;20166;-84
2023/05/19 04:23:08;;;;;;;5.70;3.03;;;;;;;9.49;66.73;96021.88;6212987;23;20241;-84
2023/05/19 04:26:01;;;;;;;5.43;2.80;;;;;;;9.60;65.77;96024.38;6208125;22;20187;-84
2023/05/19 04:28:35;;;;;;;7.07;3.20;;;;;;;9.55;66.24;96027.38;6251685;22;20160;-82
2023/05/19 04:31:31;;;;;;;7.77;3.00;;;;;;;9.67;65.69;96020.31;6250097;22;20175;-82
2023/05/19 04:34:02;;;;;;;6.20;2.57;;;;;;;9.87;64.71;96022.03;6251756;22;20156;-83
2023/05/19 04:36:33;;;;;;;8.03;3.53;;;;;;;10.10;64.17;96022.66;6249074;22;20259;-84
2023/05/19 04:39:16;;;;;;;6.07;2.87;;;;;;;10.16;63.81;96018.72;6250554;22;20152;-83
2023/05/19 04:41:43;;;;;;;8.70;3.33;;;;;;;10.51;62.66;96026.00;6274827;22;20225;-84
2023/05/19 04:44:16;;;;;;;8.20;3.10;;;;;;;10.69;61.64;96027.00;6252345;22;20157;-85
2023/05/19 04:46:53;;;;;;;9.20;2.80;;;;;;;10.92;60.63;96022.31;6252415;22;20159;-85
2023/05/19 04:49:23;;;;;;;4.10;2.67;;;;;;;11.17;59.40;96027.91;6250934;22;20163;-81
2023/05/19 04:51:55;;;;;;;9.67;3.40;;;;;;;10.95;60.28;96036.81;6251220;22;20199;-84
2023/05/19 04:54:22;;;;;;;7.77;2.90;;;;;;;11.35;59.03;96036.63;6276847;22;20129;-83
2023/05/19 04:56:48;;;;;;;6.10;2.50;;;;;;;11.15;59.15;96032.44;6274782;22;20169;-85
2023/05/19 04:59:24;;;;;;;4.40;3.10;;;;;;;11.16;59.48;96031.47;6249639;22;20160;-83
2023/05/19 05:01:50;;;;;;;5.07;2.53;;;;;;;11.68;58.00;96037.09;6250471;22;20314;-85
2023/05/19 05:04:18;;;;;;;8.50;3.20;;;;;;;11.42;59.13;96036.91;6278037;22;20156;-84
2023/05/19 05:06:47;;;;;;;6.30;2.80;;;;;;;11.43;58.01;96039.34;6277335;22;20180;-84
2023/05/19 05:09:19;;;;;;;11.33;2.97;;;;;;;11.58;57.71;96043.16;6252917;22;20207;-83
2023/05/19 05:11:56;;;;;;;4.87;2.53;;;;;;;11.99;56.47;96040.28;6253593;22;20183;-83
2023/05/19 05:14:24;;;;;;;6.47;2.87;;;;;;;11.99;56.87;96046.31;6253347;22;20149;-84
2023/05/19 05:16:56;;;;;;;5.93;2.60;;;;;;;12.11;55.54;96042.56;6276291;22;20203;-84
2023/05/19 05:19:22;;;;;;;5.27;2.70;;;;;;;11.84;56.44;96042.56;6252422;22;20152;-85
2023/05/19 05:21:47;;;;;;;5.27;2.57;;;;;;;12.22;55.56;96045.94;6249386;22;20176;-83
2023/05/19 05:24:13;;;;;;;6.27;2.80;;;;;;;12.16;55.51;96039.50;6249699;22;20502;-83
2023/05/19 05:26:39;;;;;;;5.80;2.90;;;;;;;12.34;54.84;96044.75;6276856;22;20156;-85
2023/05/19 05:29:05;;;;;;;5.30;2.80;;;;;;;12.02;56.19;96042.63;6226936;22;20172;-84
2023/05/19 05:31:33;;;;;;;4.33;3.07;;;;;;;12.15;55.69;96041.28;6227675;22;20176;-84
2023/05/19 05:34:01;;;;;;;8.77;3.33;;;;;;;11.36;57.20;96035.66;6254226;22;20153;-83
2023/05/19 05:36:34;;;;;;;7.27;2.93;;;;;;;11.63;57.30;96032.31;6251349;22;20176;-84
2023/05/19 05:39:17;;;;;;;7.10;3.10;;;;;;;11.54;57.99;96028.78;6253096;22;20164;-83
2023/05/19 05:42:43;;;;;;;10.63;3.10;;;;;;;11.71;57.56;96032.41;6225726;22;20499;-85
2023/05/19 05:45:08;;;;;;;4.53;2.73;;;;;;;12.92;54.60;96024.31;6156900;23;20135;-85
2023/05/19 05:47:36;;;;;;;6.83;3.33;;;;;;;14.28;50.56;96041.94;6156228;23;20174;-83
2023/05/19 05:50:03;;;;;;;3.80;2.53;;;;;;;15.12;47.82;96045.41;6154466;23;20640;-83
2023/05/19 05:52:29;;;;;;;10.67;3.40;;;;;;;15.53;46.58;96054.03;6106028;23;20228;-85
2023/05/19 05:55:13;;;;;;;7.03;3.27;;;;;;;16.09;45.44;96041.81;6130251;23;20179;-84
2023/05/19 05:57:40;;;;;;;9.43;2.80;;;;;;;17.50;42.50;96042.41;6152795;23;20147;-83
2023/05/19 06:00:14;;;;;;;3.93;2.80;;;;;;;18.33;40.66;96044.81;6153689;23;20503;-82
2023/05/19 06:02:42;;;;;;;5.47;2.60;;;;;;;17.52;40.85;96041.25;6154056;23;20180;-84
2023/05/19 06:05:38;;;;;;;6.00;3.50;;;;;;;16.32;43.64;96042.69;6154589;23;20689;-85
2023/05/19 06:08:05;;;;;;;5.37;3.00;;;;;;;15.97;45.19;96038.72;6129141;23;20270;-84
2023/05/19 06:10:31;;;;;;;5.53;3.03;;;;;;;15.00;46.99;96035.25;6130812;23;20190;-83
2023/05/19 06:12:56;;;;;;;6.73;3.33;;;;;;;14.45;48.70;96038.44;6154746;23;20159;-84
2023/05/19 06:15:21;;;;;;;7.33;2.90;;;;;;;14.97;47.77;96035.56;6207611;22;20192;-84
2023/05/19 06:17:47;;;;;;;8.13;2.63;;;;;;;14.96;47.73;96043.59;6237406;22;20489;-83
2023/05/19 06:20:18;;;;;;;6.63;3.20;;;;;;;14.81;48.80;96045.19;6311870;22;20152;-84
2023/05/19 06:22:46;;;;;;;4.47;2.90;;;;;;;14.27;49.94;96034.25;6287398;22;20418;-84
2023/05/19 06:25:12;;;;;;;5.27;2.73;;;;;;;14.05;50.98;96043.50;6257128;22;20224;-84
2023/05/19 06:27:37;;;;;;;5.00;3.10;;;;;;;13.85;50.73;96035.88;6280165;22;20243;-84
2023/05/19 06:30:03;;;;;;;4.97;2.70;;;;;;;13.64;51.88;96034.63;6281346;22;20167;-82
2023/05/19 06:32:28;;;;;;;5.90;3.20;;;;;;;13.56;52.43;96036.22;6280488;22;20148;-82
2023/05/19 06:34:54;;;;;;;4.37;3.10;;;;;;;13.95;51.15;96038.38;6309465;22;20176;-84
2023/05/19 06:37:34;;;;;;;7.87;3.13;;;;;;;14.47;49.35;96040.88;6256931;22;20184;-85
2023/05/19 06:40:04;;;;;;;7.07;2.73;;;;;;;14.66;49.23;96043.19;6257379;22;20160;-83
2023/05/19 06:42:29;;;;;;;6.00;3.10;;;;;;;14.64;49.07;96042.56;6258391;22;20164;-83
2023/05/19 06:44:55;;;;;;;5.43;3.40;;;;;;;15.17;47.81;96038.69;6285525;22;20185;-84
2023/05/19 06:47:20;;;;;;;4.40;3.00;;;;;;;15.05;47.90;96049.63;6284702;22;20152;-82
2023/05/19 06:49:49;;;;;;;9.60;3.70;;;;;;;15.30;47.33;96043.44;6254418;22;20163;-83
2023/05/19 06:52:15;;;;;;;6.17;2.90;;;;;;;15.64;47.77;96042.44;6280193;22;20182;-83
2023/05/19 06:54:40;;;;;;;7.70;3.03;;;;;;;15.69;45.97;96040.13;6253044;22;20243;-82
2023/05/19 06:57:05;;;;;;;6.57;3.10;;;;;;;14.92;47.78;96050.91;6252704;22;20168;-81
2023/05/19 06:59:30;;;;;;;6.53;2.70;;;;;;;15.54;47.99;96046.00;6254142;22;20158;-83
2023/05/19 07:02:11;;;;;;;9.40;3.10;;;;;;;15.44;48.36;96047.16;6253120;22;20190;-83
2023/05/19 07:04:36;;;;;;;7.03;3.00;;;;;;;14.69;48.99;96050.75;6255586;22;20198;-82
2023/05/19 07:10:29;;;;;;;6.43;3.63;;;;;;;14.70;50.20;96044.53;6197043;22;21302;-84
2023/05/19 07:13:32;;;;;;;9.27;3.43;;;;;;;14.56;50.49;96052.16;6253022;22;20153;-85
2023/05/19 07:26:22;;;;;;;9.30;3.63;;;;;;;14.93;50.70;96038.66;6178466;23;20201;-89
2023/05/19 07:29:32;;;;;;;6.83;3.17;;;;;;;15.07;50.24;96039.81;6180019;23;20247;-83
2023/05/19 07:55:55;;;;;;;9.77;3.57;;;;;;;14.37;51.29;96033.16;6182013;23;20205;-82
2023/05/19 07:58:20;;;;;;;6.50;3.70;;;;;;;14.40;50.52;96032.84;6184244;23;20316;-83
2023/05/19 08:00:46;;;;;;;8.23;3.97;;;;;;;15.07;49.31;96029.38;6161918;23;20178;-85
2023/05/19 08:03:16;;;;;;;7.57;3.80;;;;;;;15.64;47.94;96022.31;6186350;23;20155;-86
2023/05/19 08:05:57;;;;;;;11.10;3.90;;;;;;;16.55;47.33;96032.25;6132851;23;20167;-83
2023/05/19 08:08:47;;;;;;;7.87;3.87;;;;;;;16.47;45.93;96028.88;6157100;23;20212;-85
2023/05/19 08:11:23;;;;;;;10.33;3.70;;;;;;;16.83;44.69;96024.75;6155388;23;20186;-86
2023/05/19 08:14:22;;;;;;;9.90;3.93;;;;;;;16.23;46.64;96029.78;6155161;23;20154;-84
2023/05/19 08:27:26;;;;;;;7.13;3.70;;;;;;;14.18;50.37;96025.59;6120325;23;20154;-81
2023/05/19 08:29:52;;;;;;;10.67;3.60;;;;;;;14.13;51.02;96006.94;6120398;23;20168;-81
2023/05/19 08:32:17;;;;;;;7.13;3.47;;;;;;;14.10;51.41;96021.13;6120198;23;20187;-78
2023/05/19 08:51:06;;;;;;;6.53;3.57;;;;;;;14.66;51.34;96017.06;6246939;22;20199;-81
2023/05/19 08:53:36;;;;;;;7.77;3.53;;;;;;;15.11;50.68;96009.75;6274265;22;20153;-81
2023/05/19 08:56:25;;;;;;;6.33;3.20;;;;;;;14.66;51.97;96013.63;6245349;22;20638;-82
2023/05/19 08:58:50;;;;;;;8.43;3.90;;;;;;;13.87;53.32;96010.47;6246868;22;20204;-83
2023/05/19 09:01:21;;;;;;;9.53;3.57;;;;;;;14.51;51.85;96010.03;6271810;22;20176;-82
2023/05/19 09:03:48;;;;;;;7.20;3.57;;;;;;;14.53;51.89;96006.28;6246213;22;20156;-82
2023/05/19 09:06:14;;;;;;;6.70;3.10;;;;;;;14.51;51.46;96005.63;6270120;22;20167;-80
2023/05/19 09:08:40;;;;;;;10.23;3.90;;;;;;;14.49;52.11;96011.97;6272281;22;20243;-79
2023/05/19 09:11:06;;;;;;;6.53;3.60;;;;;;;14.01;51.34;96000.38;6246011;22;20176;-78
2023/05/19 09:13:32;;;;;;;11.57;3.47;;;;;;;14.06;52.37;96013.78;6246602;22;20163;-79
2023/05/19 09:16:06;;;;;;;6.27;3.30;;;;;;;13.94;53.43;96015.84;6271112;22;20191;-80
2023/05/19 09:18:32;;;;;;;9.60;4.23;;;;;;;14.29;52.41;96017.44;6272632;22;20163;-80
2023/05/19 09:21:01;;;;;;;7.07;3.13;;;;;;;13.93;52.95;96003.78;6271698;22;20285;-77
2023/05/19 09:23:33;;;;;;;7.27;3.53;;;;;;;13.86;52.96;96014.00;6243693;22;20220;-78
2023/05/19 09:26:06;;;;;;;7.53;3.57;;;;;;;13.77;53.19;96007.13;6242932;22;20690;-78
2023/05/19 09:28:33;;;;;;;8.67;3.97;;;;;;;13.90;52.54;96004.09;6244224;22;20200;-79
2023/05/19 09:31:03;;;;;;;12.30;4.13;;;;;;;14.27;52.38;96000.31;6244439;22;20184;-79
2023/05/19 09:33:29;;;;;;;6.37;3.17;;;;;;;14.16;52.08;95993.59;6271177;22;20502;-78
2023/05/19 09:35:55;;;;;;;8.17;3.70;;;;;;;14.56;52.11;95992.06;6242969;22;20176;-79
2023/05/19 09:38:22;;;;;;;8.93;3.30;;;;;;;13.98;54.50;95990.25;6243379;22;20492;-80
2023/05/19 09:40:48;;;;;;;6.47;3.27;;;;;;;14.42;52.22;95994.31;6240929;22;20181;-79
2023/05/19 09:43:15;;;;;;;9.10;3.33;;;;;;;14.65;50.64;95980.63;6268730;22;20171;-78
2023/05/19 09:45:40;;;;;;;7.13;3.53;;;;;;;14.37;51.40;95993.97;6243061;22;20232;-81
2023/05/19 09:48:06;;;;;;;7.50;3.40;;;;;;;14.84;49.61;95992.56;6244227;22;20824;-80
2023/05/19 09:50:31;;;;;;;7.40;3.33;;;;;;;14.82;49.86;95989.31;6245045;22;20267;-81
2023/05/19 09:52:57;;;;;;;4.30;2.80;;;;;;;15.25;48.91;95988.97;6244466;22;20160;-80
2023/05/19 09:55:24;;;;;;;17.67;6.90;;;;;;;14.98;50.09;95989.31;6244721;22;20191;-82
2023/05/19 09:57:51;;;;;;;8.90;3.53;;;;;;;14.65;50.45;95978.84;6243818;22;20161;-80
2023/05/19 10:00:17;;;;;;;7.17;3.27;;;;;;;15.42;49.35;95986.31;6269833;22;20610;-82
2023/05/19 10:02:44;;;;;;;7.40;3.60;;;;;;;15.04;49.68;95987.84;6244095;22;20891;-80
2023/05/19 10:05:12;;;;;;;7.37;3.57;;;;;;;14.83;49.34;95981.28;6269553;22;20187;-80
2023/05/19 10:07:43;;;;;;;5.53;3.23;;;;;;;15.23;49.31;95997.97;6243056;22;20542;-81
2023/05/19 10:11:09;;;;;;;;;;;;;;;;;;;;;
2023/05/19 10:28:09;;;;;;;7.87;3.90;;;;;;;14.04;51.55;95979.16;6270765;22;20262;-85
2023/05/19 10:31:00;;;;;;;7.87;3.60;;;;;;;14.15;52.28;95984.94;6234521;22;20208;-87
2023/05/19 10:37:15;;;;;;;6.40;3.77;;;;;;;14.89;50.23;95985.88;6228810;22;20258;-78
2023/05/19 11:10:09;;;;;;;5.30;2.65;;;;;;;15.58;48.35;95979.25;6234933;22;20188;-77
2023/05/19 12:27:26;;;;;;;5.23;3.37;;;;;;;14.21;52.48;95975.63;6260927;22;20636;-84
2023/05/19 13:17:38;;;;;;;7.77;3.57;;;;;;;14.32;52.95;95972.75;6149797;23;20565;-85
2023/05/19 14:45:11;;;;;;;7.37;3.67;;;;;;;14.52;54.13;95936.69;6184392;23;20248;-86
2023/05/19 14:48:01;;;;;;;6.90;3.90;;;;;;;14.31;54.31;95934.53;6136605;23;20249;-86
2023/05/19 14:51:10;;;;;;;6.93;3.73;;;;;;;14.21;54.78;95941.66;6157655;23;20182;-86
2023/05/19 15:10:50;;;;;;;6.23;3.87;;;;;;;13.73;55.55;95930.13;6256525;22;20203;-82
2023/05/19 15:22:19;;;;;;;7.60;4.00;;;;;;;13.95;55.15;95926.09;6244031;22;20213;-84
2023/05/19 15:24:44;;;;;;;7.43;3.30;;;;;;;13.87;56.06;95919.09;6219968;23;20176;-84
2023/05/19 15:27:10;;;;;;;7.60;4.23;;;;;;;13.78;55.80;95925.25;6192491;23;20150;-84
2023/05/19 15:29:35;;;;;;;9.23;3.97;;;;;;;13.94;55.55;95926.25;6218749;23;20161;-85
2023/05/19 15:32:01;;;;;;;10.20;5.67;;;;;;;13.99;55.08;95929.22;6219961;23;20177;-84
2023/05/19 15:34:26;;;;;;;7.23;3.77;;;;;;;14.01;55.16;95924.66;6219112;23;20164;-84
2023/05/19 15:36:51;;;;;;;6.90;3.70;;;;;;;14.13;55.02;95924.22;6245046;23;20187;-85
2023/05/19 15:39:17;;;;;;;10.53;3.77;;;;;;;14.12;55.00;95919.13;6192870;23;20208;-84
2023/05/19 15:41:42;;;;;;;5.57;4.03;;;;;;;14.29;54.45;95910.34;6218312;23;20184;-84
2023/05/19 15:44:10;;;;;;;6.10;3.73;;;;;;;14.23;55.06;95918.03;6217947;23;20533;-85
2023/05/19 15:46:36;;;;;;;10.20;4.30;;;;;;;14.14;55.07;95922.41;6218266;23;20195;-83
2023/05/19 15:49:39;;;;;;;8.67;3.87;;;;;;;14.13;55.68;95915.53;6194016;23;20682;-82
2023/05/19 15:52:07;;;;;;;7.93;4.30;;;;;;;14.25;55.73;95921.28;6168291;23;20187;-83
2023/05/19 15:54:35;;;;;;;6.43;4.00;;;;;;;14.00;55.33;95912.59;6192757;23;20165;-84
2023/05/19 15:57:04;;;;;;;12.40;4.00;;;;;;;13.73;56.37;95908.44;6188144;23;20704;-83
2023/05/19 15:59:32;;;;;;;8.33;4.30;;;;;;;13.92;56.38;95912.56;6193489;23;20165;-84
2023/05/19 16:01:58;;;;;;;9.97;3.57;;;;;;;13.81;56.49;95911.06;6194103;23;20172;-85
2023/05/19 16:04:27;;;;;;;7.47;3.93;;;;;;;13.76;56.20;95902.88;6193247;23;20226;-83
2023/05/19 16:06:58;;;;;;;8.37;4.37;;;;;;;13.85;56.49;95904.53;6193222;23;20618;-84
2023/05/19 16:09:23;;;;;;;6.13;4.00;;;;;;;13.68;56.85;95901.06;6218622;23;20156;-84
2023/05/19 16:11:55;;;;;;;8.00;4.03;;;;;;;13.97;56.50;95894.63;6191073;23;20300;-84
2023/05/19 16:14:22;;;;;;;6.33;3.50;;;;;;;14.12;56.08;95890.41;6192749;23;20236;-86
2023/05/19 16:16:49;;;;;;;8.37;3.60;;;;;;;14.22;55.52;95891.06;6193383;23;20177;-86
2023/05/19 16:19:17;;;;;;;6.20;3.57;;;;;;;14.32;55.69;95888.31;6193897;23;20244;-86
2023/05/19 16:21:42;;;;;;;6.33;3.50;;;;;;;14.32;56.72;95883.91;6194999;23;20185;-86
2023/05/19 16:24:10;;;;;;;6.97;3.70;;;;;;;14.10;56.10;95887.94;6193735;23;20236;-85
2023/05/19 16:26:35;;;;;;;5.20;3.30;;;;;;;14.15;56.26;95877.03;6220887;23;20155;-85
2023/05/19 16:29:04;;;;;;;6.23;3.97;;;;;;;13.74;57.86;95879.56;6196404;23;20188;-85
2023/05/19 16:31:29;;;;;;;8.23;4.20;;;;;;;14.23;55.91;95874.44;6196133;23;20252;-86
2023/05/19 16:33:55;;;;;;;6.20;3.30;;;;;;;14.33;56.08;95876.88;6222802;23;20184;-86
2023/05/19 16:36:30;;;;;;;7.10;3.83;;;;;;;14.17;57.18;95872.47;6196702;23;20181;-85
2023/05/19 16:38:56;;;;;;;7.80;3.20;;;;;;;14.49;56.19;95874.31;6200106;23;20511;-82
2023/05/19 16:41:21;;;;;;;4.23;3.47;;;;;;;14.67;55.49;95866.31;6193632;23;20199;-82
2023/05/19 16:43:46;;;;;;;7.63;4.23;;;;;;;14.77;54.70;95872.16;6195725;23;20161;-80
2023/05/19 16:46:12;;;;;;;10.60;4.20;;;;;;;14.56;55.05;95872.66;6193182;23;20165;-81
2023/05/19 16:48:37;;;;;;;6.70;4.20;;;;;;;14.66;55.22;95872.47;6193722;23;20165;-82
2023/05/19 16:51:02;;;;;;;8.37;3.77;;;;;;;14.70;56.42;95871.19;6217562;23;20264;-81
2023/05/19 16:53:28;;;;;;;8.17;4.33;;;;;;;14.70;55.42;95871.19;6218408;23;20164;-81
2023/05/19 16:55:53;;;;;;;4.67;3.77;;;;;;;14.52;55.66;95862.72;6217248;23;20210;-82
2023/05/19 16:58:18;;;;;;;6.90;3.63;;;;;;;14.54;55.42;95864.19;6218159;23;20169;-82
2023/05/19 17:00:44;;;;;;;5.57;3.70;;;;;;;14.36;55.59;95866.91;6192597;23;20185;-82
2023/05/19 17:03:10;;;;;;;4.33;3.03;;;;;;;14.39;55.49;95871.00;6194094;23;20520;-84
2023/05/19 17:05:37;;;;;;;4.73;3.20;;;;;;;14.48;55.48;95867.44;6192256;23;20157;-83
2023/05/19 17:08:03;;;;;;;5.83;3.60;;;;;;;14.63;55.43;95863.19;6216903;23;20157;-81
2023/05/19 17:10:28;;;;;;;9.67;4.27;;;;;;;14.66;55.56;95870.69;6244681;23;20182;-81
2023/05/19 17:12:54;;;;;;;7.83;4.07;;;;;;;14.73;55.18;95870.84;6218471;23;20138;-83
2023/05/19 17:15:19;;;;;;;4.57;3.40;;;;;;;14.61;55.01;95869.56;6194263;23;20515;-82
2023/05/19 17:17:45;;;;;;;7.17;3.60;;;;;;;14.41;55.69;95867.25;6194776;23;20161;-83
2023/05/19 17:20:10;;;;;;;7.83;3.30;;;;;;;14.43;55.62;95869.72;6219077;23;20536;-83
2023/05/19 17:22:36;;;;;;;4.90;3.37;;;;;;;14.41;56.44;95866.44;6220143;23;20145;-82
2023/05/19 17:25:01;;;;;;;6.33;3.07;;;;;;;14.34;56.18;95866.28;6222848;23;20188;-80
2023/05/19 17:27:26;;;;;;;6.73;3.17;;;;;;;14.43;56.93;95859.25;6197123;23;20168;-80
2023/05/19 17:29:52;;;;;;;6.73;3.60;;;;;;;14.37;56.77;95858.09;6223660;23;20164;-85
2023/05/19 17:32:17;;;;;;;6.83;3.50;;;;;;;14.47;57.07;95867.59;6196246;23;20219;-82
2023/05/19 17:34:42;;;;;;;7.20;3.37;;;;;;;14.42;56.99;95870.69;6195763;23;20169;-81
2023/05/19 17:37:08;;;;;;;4.80;3.60;;;;;;;14.42;56.54;95861.06;6219346;23;20165;-81
2023/05/19 17:39:33;;;;;;;3.97;3.40;;;;;;;14.38;56.91;95861.53;6219259;23;20158;-80
2023/05/19 17:41:58;;;;;;;3.70;3.20;;;;;;;14.28;57.15;95860.88;6219990;23;20204;-85
2023/05/19 17:44:24;;;;;;;6.33;3.80;;;;;;;14.42;56.56;95857.63;6196536;23;20165;-84
2023/05/19 17:46:49;;;;;;;7.03;3.67;;;;;;;14.21;58.13;95847.63;6195760;23;20157;-83
2023/05/19 17:49:15;;;;;;;10.63;3.87;;;;;;;14.33;58.45;95853.38;6220433;23;20185;-82
2023/05/19 17:51:40;;;;;;;7.73;4.23;;;;;;;14.19;58.54;95852.22;6195461;23;20185;-81
2023/05/19 17:54:06;;;;;;;10.27;6.87;;;;;;;13.96;59.20;95859.03;6221161;23;20160;-82
2023/05/19 17:56:32;;;;;;;10.47;7.03;;;;;;;14.13;58.27;95851.09;6220078;23;20184;-81
2023/05/19 17:58:58;;;;;;;9.17;6.10;;;;;;;14.15;58.31;95856.97;6196047;23;20165;-81
2023/05/19 18:01:24;;;;;;;10.87;5.83;;;;;;;14.07;58.34;95853.53;6221265;23;20173;-82
2023/05/19 18:03:50;;;;;;;10.13;4.53;;;;;;;14.16;58.88;95848.16;6221201;23;20595;-81
2023/05/19 18:06:16;;;;;;;4.43;3.93;;;;;;;14.07;59.08;95850.91;6195569;23;20156;-82
2023/05/19 18:08:45;;;;;;;4.80;3.60;;;;;;;14.11;59.39;95844.38;6222212;23;20276;-80
2023/05/19 18:11:14;;;;;;;4.63;3.40;;;;;;;14.00;59.23;95842.09;6198470;23;20204;-82
2023/05/19 18:13:41;;;;;;;8.50;3.80;;;;;;;13.82;60.55;95850.88;6199240;23;20212;-82
2023/05/19 18:16:06;;;;;;;6.87;3.87;;;;;;;13.80;60.05;95858.03;6196497;23;20288;-80
2023/05/19 18:18:33;;;;;;;8.50;4.27;;;;;;;13.73;60.07;95848.41;6250025;23;20619;-82
2023/05/19 18:20:58;;;;;;;6.27;4.67;;;;;;;13.77;60.50;95853.13;6248546;23;20210;-81